createdAt,value
2022-08-22T00:01:18.219Z,23.50
2022-08-22T00:03:58.549Z,23.40
2022-08-22T00:06:36.364Z,23.40
2022-08-22T00:09:21.299Z,23.30
2022-08-22T00:12:00.375Z,23.20
2022-08-22T00:14:38.834Z,23.20
2022-08-22T00:17:22.254Z,23.20
2022-08-22T00:20:03.166Z,23.20
2022-08-22T00:22:39.104Z,23.10
2022-08-22T00:25:33.883Z,23.10
2022-08-22T00:28:08.364Z,23.00
2022-08-22T00:30:43.984Z,23.10
2022-08-22T00:33:24.149Z,23.10
2022-08-22T00:36:11.349Z,23.10
2022-08-22T00:38:46.663Z,23.10
2022-08-22T00:41:32.089Z,23.00
2022-08-22T00:44:38.029Z,23.00
2022-08-22T00:47:41.090Z,23.00
2022-08-22T00:50:39.148Z,23.10
2022-08-22T00:53:45.912Z,23.00
2022-08-22T00:56:46.819Z,22.90
2022-08-22T00:59:48.359Z,22.90
2022-08-22T01:02:31.872Z,22.90
2022-08-22T01:05:18.204Z,22.90
2022-08-22T01:08:10.820Z,22.80
2022-08-22T01:10:59.347Z,22.90
2022-08-22T01:13:42.040Z,22.90
2022-08-22T01:16:28.701Z,22.90
2022-08-22T01:19:24.765Z,22.90
2022-08-22T01:22:25.966Z,22.80
2022-08-22T01:25:39.854Z,22.80
2022-08-22T01:28:41.938Z,22.70
2022-08-22T01:32:03.050Z,22.70
2022-08-22T01:35:11.923Z,22.70
2022-08-22T01:38:22.300Z,22.70
2022-08-22T01:41:18.561Z,22.60
2022-08-22T01:44:19.256Z,22.60
2022-08-22T01:46:55.458Z,22.60
2022-08-22T01:49:28.731Z,22.70
2022-08-22T01:52:05.844Z,22.70
2022-08-22T01:54:48.705Z,22.70
2022-08-22T01:57:19.318Z,22.80
2022-08-22T01:59:50.536Z,22.80
2022-08-22T02:02:42.635Z,22.80
2022-08-22T02:05:23.019Z,22.80
2022-08-22T02:08:00.532Z,22.80
2022-08-22T02:10:46.492Z,22.80
2022-08-22T02:13:31.448Z,22.80
2022-08-22T02:16:10.402Z,22.70
2022-08-22T02:18:54.876Z,22.70
2022-08-22T02:21:28.795Z,22.60
2022-08-22T02:24:03.815Z,22.60
2022-08-22T02:26:46.338Z,22.50
2022-08-22T02:29:20.379Z,22.50
2022-08-22T02:31:55.556Z,22.50
2022-08-22T02:34:37.939Z,22.40
2022-08-22T02:37:15.112Z,22.40
2022-08-22T02:39:51.945Z,22.30
2022-08-22T02:42:27.943Z,22.30
2022-08-22T02:45:07.370Z,22.40
2022-08-22T02:47:43.058Z,22.30
2022-08-22T02:50:19.707Z,22.30
2022-08-22T02:53:00.079Z,22.30
2022-08-22T02:55:41.161Z,22.40
2022-08-22T02:58:17.303Z,22.40
2022-08-22T03:00:51.832Z,22.30
2022-08-22T03:03:25.913Z,22.30
2022-08-22T03:06:01.886Z,22.20
2022-08-22T03:08:33.302Z,22.20
2022-08-22T03:11:20.101Z,22.20
2022-08-22T03:14:13.025Z,22.30
2022-08-22T03:16:50.022Z,22.30
2022-08-22T03:19:22.802Z,22.20
2022-08-22T03:21:57.039Z,22.20
2022-08-22T03:24:32.602Z,22.10
2022-08-22T03:27:07.418Z,22.10
2022-08-22T03:29:39.681Z,22.10
2022-08-22T03:32:13.322Z,22.10
2022-08-22T03:34:56.976Z,22.10
2022-08-22T03:37:37.611Z,22.10
2022-08-22T03:40:22.226Z,22.10
2022-08-22T03:43:09.124Z,22.10
2022-08-22T03:45:56.232Z,22.00
2022-08-22T03:49:00.500Z,22.20
2022-08-22T03:51:48.274Z,22.20
2022-08-22T03:54:56.881Z,22.40
2022-08-22T03:58:02.590Z,22.40
2022-08-22T04:00:56.735Z,22.30
2022-08-22T04:04:07.391Z,22.30
2022-08-22T04:07:05.422Z,22.40
2022-08-22T04:10:15.225Z,22.30
2022-08-22T04:13:18.073Z,22.20
2022-08-22T04:16:05.975Z,22.20
2022-08-22T04:19:00.991Z,22.30
2022-08-22T04:21:55.629Z,22.30
2022-08-22T04:25:04.692Z,22.20
2022-08-22T04:27:42.418Z,22.30
2022-08-22T04:30:27.303Z,22.20
2022-08-22T04:33:01.799Z,22.20
2022-08-22T04:35:35.397Z,22.20
2022-08-22T04:38:11.538Z,22.20
2022-08-22T04:40:50.336Z,22.30
2022-08-22T04:43:24.355Z,22.30
2022-08-22T04:46:00.025Z,22.30
2022-08-22T04:48:33.844Z,22.30
2022-08-22T04:51:06.589Z,22.30
2022-08-22T04:54:05.649Z,22.40
2022-08-22T04:56:44.120Z,22.40
2022-08-22T04:59:16.506Z,22.50
2022-08-22T05:01:48.953Z,22.50
2022-08-22T05:04:21.670Z,22.50
2022-08-22T05:06:54.852Z,22.60
2022-08-22T05:09:27.853Z,22.60
2022-08-22T05:12:05.096Z,22.60
2022-08-22T05:14:38.580Z,22.60
2022-08-22T05:17:15.651Z,22.70
2022-08-22T05:19:51.404Z,22.80
2022-08-22T05:22:25.395Z,22.80
2022-08-22T05:24:58.180Z,22.90
2022-08-22T05:27:30.033Z,22.90
2022-08-22T05:30:03.809Z,23.00
2022-08-22T05:32:42.025Z,23.10
2022-08-22T05:35:11.198Z,23.10
2022-08-22T05:37:44.344Z,23.20
2022-08-22T05:40:19.924Z,23.20
2022-08-22T05:42:49.277Z,23.30
2022-08-22T05:45:20.433Z,23.30
2022-08-22T05:47:53.828Z,23.40
2022-08-22T05:50:28.946Z,23.50
2022-08-22T05:53:06.367Z,23.60
2022-08-22T05:55:44.014Z,23.70
2022-08-22T05:58:21.179Z,23.80
2022-08-22T06:00:59.281Z,23.90
2022-08-22T06:03:35.144Z,24.10
2022-08-22T06:06:12.072Z,24.30
2022-08-22T06:08:44.439Z,24.30
2022-08-22T06:11:18.327Z,24.40
2022-08-22T06:13:54.704Z,24.30
2022-08-22T06:16:30.722Z,24.30
2022-08-22T06:19:01.126Z,24.20
2022-08-22T06:21:39.163Z,24.20
2022-08-22T06:24:14.329Z,24.20
2022-08-22T06:26:48.815Z,24.20
2022-08-22T06:29:34.680Z,24.30
2022-08-22T06:32:10.444Z,24.30
2022-08-22T06:34:44.208Z,24.40
2022-08-22T06:37:19.380Z,24.50
2022-08-22T06:39:51.435Z,24.50
2022-08-22T06:42:24.117Z,24.70
2022-08-22T06:44:58.433Z,24.80
2022-08-22T06:47:30.065Z,24.90
2022-08-22T06:50:04.712Z,25.00
2022-08-22T06:52:37.046Z,25.10
2022-08-22T06:55:10.402Z,25.10
2022-08-22T06:57:47.584Z,25.30
2022-08-22T07:00:18.634Z,25.30
2022-08-22T07:02:50.154Z,25.30
2022-08-22T07:05:23.451Z,25.30
2022-08-22T07:07:53.065Z,25.30
2022-08-22T07:10:24.021Z,25.40
2022-08-22T07:12:54.379Z,25.40
2022-08-22T07:15:26.712Z,25.40
2022-08-22T07:18:00.447Z,25.50
2022-08-22T07:20:35.186Z,25.60
2022-08-22T07:23:07.183Z,25.70
2022-08-22T07:25:47.739Z,25.80
2022-08-22T07:28:36.608Z,25.70
2022-08-22T07:31:16.641Z,25.70
2022-08-22T07:33:49.635Z,25.70
2022-08-22T07:36:31.025Z,25.80
2022-08-22T07:39:24.349Z,26.00
2022-08-22T07:42:11.599Z,26.00
2022-08-22T07:44:53.249Z,26.10
2022-08-22T07:47:26.285Z,26.20
2022-08-22T07:49:57.549Z,26.10
2022-08-22T07:52:31.786Z,26.10
2022-08-22T07:55:10.318Z,26.20
2022-08-22T07:57:42.521Z,26.30
2022-08-22T08:00:16.103Z,26.30
2022-08-22T08:02:47.853Z,26.20
2022-08-22T08:05:17.518Z,26.10
2022-08-22T08:07:48.586Z,26.20
2022-08-22T08:10:20.091Z,26.10
2022-08-22T08:12:58.022Z,26.10
2022-08-22T08:15:33.087Z,26.30
2022-08-22T08:18:05.720Z,26.30
2022-08-22T08:20:37.130Z,26.50
2022-08-22T08:23:11.092Z,26.60
2022-08-22T08:25:55.921Z,26.50
2022-08-22T08:28:36.311Z,26.60
2022-08-22T08:31:14.763Z,26.60
2022-08-22T08:33:47.228Z,26.80
2022-08-22T08:36:36.110Z,26.90
2022-08-22T08:39:14.386Z,26.80
2022-08-22T08:42:27.736Z,26.90
2022-08-22T08:45:28.883Z,27.00
2022-08-22T08:48:22.469Z,27.10
2022-08-22T08:51:13.574Z,27.10
2022-08-22T08:54:09.378Z,27.20
2022-08-22T08:56:48.407Z,27.00
2022-08-22T08:59:42.433Z,26.80
2022-08-22T09:02:47.060Z,26.80
2022-08-22T09:05:54.734Z,26.90
2022-08-22T09:08:58.738Z,27.10
2022-08-22T09:12:06.216Z,27.00
2022-08-22T09:15:00.767Z,27.00
2022-08-22T09:17:57.837Z,27.10
2022-08-22T09:20:50.667Z,27.10
2022-08-22T09:23:58.061Z,27.10
2022-08-22T09:26:33.138Z,27.30
2022-08-22T09:29:19.050Z,27.50
2022-08-22T09:31:59.698Z,27.50
2022-08-22T09:34:35.665Z,27.70
2022-08-22T09:37:17.665Z,27.80
2022-08-22T09:39:55.595Z,28.00
2022-08-22T09:42:31.877Z,28.10
2022-08-22T09:45:42.898Z,28.20
2022-08-22T09:48:30.066Z,28.30
2022-08-22T09:51:31.935Z,28.40
2022-08-22T09:54:24.172Z,28.40
2022-08-22T09:57:17.459Z,28.40
2022-08-22T09:59:58.036Z,28.50
2022-08-22T10:02:36.464Z,28.50
2022-08-22T10:05:41.248Z,28.60
2022-08-22T10:08:14.990Z,28.60
2022-08-22T10:11:19.726Z,28.80
2022-08-22T10:13:57.829Z,28.80
2022-08-22T10:16:44.600Z,28.80
2022-08-22T10:19:23.078Z,28.90
2022-08-22T10:22:24.379Z,29.00
2022-08-22T10:25:24.454Z,29.00
2022-08-22T10:28:04.207Z,29.10
2022-08-22T10:30:38.223Z,29.10
2022-08-22T10:33:14.251Z,29.30
2022-08-22T10:36:00.040Z,29.30
2022-08-22T10:38:46.455Z,29.60
2022-08-22T10:41:28.843Z,29.80
2022-08-22T10:44:04.251Z,29.80
2022-08-22T10:46:42.045Z,29.80
2022-08-22T10:49:19.748Z,29.70
2022-08-22T10:51:53.973Z,29.70
2022-08-22T10:54:52.659Z,29.30
2022-08-22T10:57:49.426Z,29.10
2022-08-22T11:00:46.434Z,29.10
2022-08-22T11:03:25.725Z,29.30
2022-08-22T11:05:58.409Z,29.20
2022-08-22T11:08:59.588Z,29.30
2022-08-22T11:11:48.277Z,29.80
2022-08-22T11:14:53.563Z,29.80
2022-08-22T11:17:40.674Z,29.50
2022-08-22T11:20:22.384Z,29.40
2022-08-22T11:23:12.249Z,29.50
2022-08-22T11:25:54.214Z,29.80
2022-08-22T11:28:53.659Z,29.70
2022-08-22T11:31:31.825Z,30.00
2022-08-22T11:34:12.771Z,30.20
2022-08-22T11:36:47.905Z,29.80
2022-08-22T11:39:26.055Z,29.80
2022-08-22T11:42:04.106Z,29.90
2022-08-22T11:44:49.961Z,30.00
2022-08-22T11:47:26.598Z,30.20
2022-08-22T11:57:04.402Z,29.90
2022-08-22T11:59:55.445Z,29.90
2022-08-22T12:02:32.755Z,29.60
2022-08-22T12:05:10.578Z,29.50
2022-08-22T12:07:56.253Z,29.30
2022-08-22T12:10:32.575Z,29.50
2022-08-22T12:13:09.355Z,30.10
2022-08-22T12:15:46.815Z,30.30
2022-08-22T12:18:52.867Z,30.50
2022-08-22T12:21:52.053Z,30.70
2022-08-22T12:24:43.582Z,31.00
2022-08-22T12:27:31.321Z,31.10
2022-08-22T12:30:13.664Z,30.80
2022-08-22T12:33:22.036Z,30.60
2022-08-22T12:36:18.161Z,30.80
2022-08-22T12:39:19.965Z,31.00
2022-08-22T12:42:18.821Z,31.10
2022-08-22T12:45:09.623Z,30.90
2022-08-22T12:47:52.505Z,30.60
2022-08-22T12:50:33.972Z,30.40
2022-08-22T12:53:50.973Z,30.40
2022-08-22T12:56:31.437Z,30.20
2022-08-22T12:59:17.914Z,30.00
2022-08-22T13:01:48.551Z,30.00
2022-08-22T13:04:33.624Z,30.30
2022-08-22T13:07:19.469Z,30.50
2022-08-22T13:09:56.619Z,30.50
2022-08-22T13:12:29.493Z,30.40
2022-08-22T13:15:05.307Z,30.10
2022-08-22T13:17:35.886Z,29.90
2022-08-22T13:20:15.403Z,30.00
2022-08-22T13:22:48.159Z,30.20
2022-08-22T13:25:26.025Z,30.10
2022-08-22T13:27:59.152Z,30.70
2022-08-22T13:30:32.077Z,30.80
2022-08-22T13:33:08.668Z,30.90
2022-08-22T13:35:45.552Z,30.80
2022-08-22T13:38:26.641Z,31.00
2022-08-22T13:40:58.772Z,30.70
2022-08-22T13:43:31.920Z,30.90
2022-08-22T13:46:03.620Z,31.60
2022-08-22T13:48:49.565Z,32.10
2022-08-22T13:51:25.419Z,31.90
2022-08-22T13:54:10.928Z,32.30
2022-08-22T13:56:50.640Z,32.50
2022-08-22T13:59:49.558Z,32.90
2022-08-22T14:02:34.168Z,33.10
2022-08-22T14:05:08.173Z,33.30
2022-08-22T14:07:44.908Z,33.50
2022-08-22T14:10:21.413Z,33.90
2022-08-22T14:13:27.221Z,34.10
2022-08-22T14:16:01.642Z,33.90
2022-08-22T14:18:46.171Z,33.50
2022-08-22T14:21:27.135Z,33.30
2022-08-22T14:23:59.947Z,32.90
2022-08-22T14:26:32.864Z,32.30
2022-08-22T14:29:08.486Z,32.00
2022-08-22T14:31:37.330Z,32.00
2022-08-22T14:34:11.905Z,31.80
2022-08-22T14:36:46.947Z,31.50
2022-08-22T14:39:31.490Z,31.30
2022-08-22T14:42:14.111Z,31.20
2022-08-22T14:44:52.264Z,30.80
2022-08-22T14:47:55.644Z,30.50
2022-08-22T14:50:42.261Z,30.40
2022-08-22T14:53:12.997Z,30.00
2022-08-22T14:55:43.758Z,29.80
2022-08-22T14:58:26.421Z,29.90
2022-08-22T15:00:58.667Z,29.90
2022-08-22T15:03:32.309Z,29.40
2022-08-22T15:06:05.778Z,28.60
2022-08-22T15:08:37.361Z,28.20
2022-08-22T15:11:21.273Z,27.70
2022-08-22T15:13:59.953Z,26.90
2022-08-22T15:16:34.338Z,26.50
2022-08-22T15:19:21.329Z,26.20
2022-08-22T15:21:52.512Z,25.90
2022-08-22T15:24:22.595Z,25.70
2022-08-22T15:26:55.947Z,25.80
2022-08-22T15:29:27.532Z,26.00
2022-08-22T15:32:02.421Z,26.00
2022-08-22T15:34:34.323Z,26.00
2022-08-22T15:37:29.657Z,25.60
2022-08-22T15:40:11.918Z,24.90
2022-08-22T15:42:45.512Z,24.20
2022-08-22T15:45:33.900Z,23.50
2022-08-22T15:48:06.071Z,22.90
2022-08-22T15:50:38.839Z,22.50
2022-08-22T15:53:21.824Z,22.20
2022-08-22T15:56:27.984Z,21.90
2022-08-22T15:59:23.094Z,21.70
2022-08-22T16:01:56.063Z,21.70
2022-08-22T16:04:39.504Z,22.00
2022-08-22T16:07:23.896Z,22.30
2022-08-22T16:09:55.440Z,22.70
2022-08-22T16:12:32.971Z,22.90
2022-08-22T16:15:05.689Z,23.00
2022-08-22T16:17:44.262Z,23.00
2022-08-22T16:20:47.695Z,23.20
2022-08-22T16:23:17.014Z,23.40
2022-08-22T16:26:08.926Z,23.90
2022-08-22T16:28:59.235Z,24.70
2022-08-22T16:31:35.977Z,25.30
2022-08-22T16:34:27.941Z,25.90
2022-08-22T16:37:41.252Z,26.50
2022-08-22T16:40:24.194Z,26.80
2022-08-22T16:43:12.518Z,26.90
2022-08-22T16:45:45.441Z,27.00
2022-08-22T16:48:36.315Z,27.10
2022-08-22T16:51:15.411Z,27.20
2022-08-22T16:54:12.631Z,27.10
2022-08-22T16:56:57.686Z,26.80
2022-08-22T16:59:39.073Z,26.80
2022-08-22T17:02:36.041Z,26.90
2022-08-22T17:05:32.935Z,26.90
2022-08-22T17:08:11.575Z,26.50
2022-08-22T17:10:53.615Z,26.30
2022-08-22T17:13:42.574Z,26.00
2022-08-22T17:16:45.250Z,25.60
2022-08-22T17:19:25.478Z,25.30
2022-08-22T17:22:00.497Z,25.00
2022-08-22T17:24:37.676Z,24.70
2022-08-22T17:27:17.881Z,24.60
2022-08-22T17:30:00.031Z,24.50
2022-08-22T17:32:38.647Z,24.50
2022-08-22T17:35:32.852Z,24.40
2022-08-22T17:38:13.420Z,24.20
2022-08-22T17:40:52.668Z,24.30
2022-08-22T17:43:49.761Z,24.30
2022-08-22T17:46:34.796Z,24.20
2022-08-22T17:49:15.424Z,24.00
2022-08-22T17:51:52.502Z,23.90
2022-08-22T17:54:31.472Z,23.80
2022-08-22T17:57:05.861Z,23.80
2022-08-22T17:59:41.072Z,23.70
2022-08-22T18:02:16.385Z,23.70
2022-08-22T18:04:52.184Z,23.90
2022-08-22T18:07:48.132Z,23.80
2022-08-22T18:10:31.542Z,23.70
2022-08-22T18:13:07.194Z,23.70
2022-08-22T18:15:43.430Z,23.70
2022-08-22T18:18:21.393Z,23.70
2022-08-22T18:20:57.485Z,23.70
2022-08-22T18:23:39.773Z,23.80
2022-08-22T18:26:24.938Z,23.80
2022-08-22T18:29:00.847Z,23.80
2022-08-22T18:31:41.822Z,23.80
2022-08-22T18:34:21.891Z,23.80
2022-08-22T18:36:57.787Z,23.90
2022-08-22T18:39:31.461Z,23.90
2022-08-22T18:42:09.852Z,23.80
2022-08-22T18:44:40.321Z,23.60
2022-08-22T18:47:15.857Z,23.50
2022-08-22T18:49:54.224Z,23.50
2022-08-22T18:52:38.579Z,23.60
2022-08-22T18:55:32.441Z,23.70
2022-08-22T18:58:29.130Z,23.60
2022-08-22T19:01:08.343Z,23.80
2022-08-22T19:03:56.570Z,23.90
2022-08-22T19:06:46.373Z,24.00
2022-08-22T19:09:49.096Z,24.10
2022-08-22T19:12:50.738Z,24.20
2022-08-22T19:15:33.494Z,24.20
2022-08-22T19:18:28.105Z,24.10
2022-08-22T19:21:41.360Z,24.00
2022-08-22T19:24:13.404Z,24.00
2022-08-22T19:26:45.024Z,23.90
2022-08-22T19:29:55.254Z,23.90
2022-08-22T19:32:59.150Z,23.90
2022-08-22T19:35:37.437Z,23.90
2022-08-22T19:38:07.959Z,23.90
2022-08-22T19:40:53.534Z,23.90
2022-08-22T19:43:30.228Z,23.80
2022-08-22T19:46:00.876Z,23.70
2022-08-22T19:48:33.269Z,23.70
2022-08-22T19:51:13.060Z,23.70
2022-08-22T19:53:50.665Z,23.70
2022-08-22T19:56:35.652Z,23.60
2022-08-22T19:59:20.255Z,23.70
2022-08-22T20:01:59.409Z,23.80
2022-08-22T20:04:42.196Z,23.90
2022-08-22T20:07:26.990Z,23.90
2022-08-22T20:10:05.698Z,23.80
2022-08-22T20:12:43.260Z,23.70
2022-08-22T20:15:17.986Z,23.80
2022-08-22T20:18:11.681Z,23.80
2022-08-22T20:20:56.434Z,23.70
2022-08-22T20:23:30.862Z,23.60
2022-08-22T20:25:59.833Z,23.50
2022-08-22T20:28:46.132Z,23.50
2022-08-22T20:31:23.255Z,23.60
2022-08-22T20:33:57.886Z,23.60
2022-08-22T20:36:28.393Z,23.70
2022-08-22T20:39:02.770Z,23.60
2022-08-22T20:41:35.593Z,23.50
2022-08-22T20:44:12.359Z,23.50
2022-08-22T20:46:53.532Z,23.50
2022-08-22T20:49:28.459Z,23.50
2022-08-22T20:52:00.553Z,23.30
2022-08-22T20:54:34.208Z,23.20
2022-08-22T20:57:11.352Z,23.20
2022-08-22T20:59:42.654Z,23.20
2022-08-22T21:02:15.837Z,23.20
2022-08-22T21:04:53.412Z,23.30
2022-08-22T21:07:24.951Z,23.30
2022-08-22T21:10:22.594Z,23.30
2022-08-22T21:13:11.465Z,23.40
2022-08-22T21:15:42.258Z,23.30
2022-08-22T21:18:12.361Z,23.30
2022-08-22T21:20:42.436Z,23.30
2022-08-22T21:23:15.013Z,23.30
2022-08-22T21:25:57.108Z,23.30
2022-08-22T21:28:32.252Z,23.30
2022-08-22T21:31:08.594Z,23.40
2022-08-22T21:33:41.757Z,23.40
2022-08-22T21:36:12.606Z,23.30
2022-08-22T21:38:42.079Z,23.30
2022-08-22T21:41:17.566Z,23.30
2022-08-22T21:43:48.217Z,23.20
2022-08-22T21:46:28.982Z,23.20
2022-08-22T21:49:03.670Z,23.10
2022-08-22T21:51:41.994Z,23.10
2022-08-22T21:54:39.970Z,23.10
2022-08-22T21:57:36.787Z,23.00
2022-08-22T22:00:11.055Z,23.00
2022-08-22T22:02:43.809Z,23.10
2022-08-22T22:05:15.985Z,23.00
2022-08-22T22:07:47.611Z,23.00
2022-08-22T22:10:18.467Z,22.90
2022-08-22T22:12:51.895Z,22.80
2022-08-22T22:15:24.410Z,22.80
2022-08-22T22:17:54.149Z,22.90
2022-08-22T22:20:24.487Z,22.90
2022-08-22T22:22:53.300Z,22.90
2022-08-22T22:25:41.323Z,23.00
2022-08-22T22:28:15.394Z,22.90
2022-08-22T22:30:46.069Z,23.00
2022-08-22T22:33:14.514Z,23.00
2022-08-22T22:35:45.761Z,23.00
2022-08-22T22:38:14.808Z,23.00
2022-08-22T22:40:43.403Z,22.90
2022-08-22T22:43:13.724Z,22.90
2022-08-22T22:45:42.429Z,22.90
2022-08-22T22:48:10.889Z,22.90
2022-08-22T22:50:44.186Z,22.80
2022-08-22T22:53:19.389Z,22.60
2022-08-22T22:56:00.244Z,22.50
2022-08-22T22:58:30.834Z,22.40
2022-08-22T23:00:59.398Z,22.40
2022-08-22T23:03:27.928Z,22.30
2022-08-22T23:05:56.378Z,22.40
2022-08-22T23:08:24.869Z,22.40
2022-08-22T23:10:53.312Z,22.40
2022-08-22T23:13:21.886Z,22.40
2022-08-22T23:15:51.780Z,22.40
2022-08-22T23:18:20.931Z,22.40
2022-08-22T23:20:55.238Z,22.40
2022-08-22T23:23:23.696Z,22.40
2022-08-22T23:25:52.299Z,22.30
2022-08-22T23:28:20.850Z,22.20
2022-08-22T23:30:49.475Z,22.10
2022-08-22T23:33:19.368Z,22.10
2022-08-22T23:35:47.904Z,22.10
2022-08-22T23:38:16.339Z,22.10
2022-08-22T23:40:48.798Z,22.20
2022-08-22T23:43:17.241Z,22.30
2022-08-22T23:45:45.716Z,22.30
2022-08-22T23:48:14.967Z,22.20
2022-08-22T23:50:44.905Z,22.20
2022-08-22T23:53:13.340Z,22.10
2022-08-22T23:55:42.179Z,22.10
2022-08-22T23:58:10.668Z,22.10
